createdAt,value
2022-10-14T00:01:24.595Z,16.08
2022-10-14T00:03:55.583Z,16.08
2022-10-14T00:06:26.331Z,16.03
2022-10-14T00:08:55.280Z,15.98
2022-10-14T00:11:25.956Z,16.02
2022-10-14T00:13:56.742Z,16.04
2022-10-14T00:16:29.968Z,16.06
2022-10-14T00:18:59.637Z,16.11
2022-10-14T00:21:29.295Z,16.06
2022-10-14T00:23:58.248Z,16.09
2022-10-14T00:26:30.792Z,16.11
2022-10-14T00:29:00.435Z,16.14
2022-10-14T00:31:32.167Z,16.09
2022-10-14T00:34:02.082Z,16.10
2022-10-14T00:36:30.275Z,16.06
2022-10-14T00:38:58.488Z,16.03
2022-10-14T00:41:30.264Z,16.08
2022-10-14T00:44:02.670Z,16.06
2022-10-14T00:46:34.267Z,16.00
2022-10-14T00:49:09.719Z,15.98
2022-10-14T00:51:39.724Z,15.98
2022-10-14T00:54:08.993Z,15.96
2022-10-14T00:56:38.042Z,15.95
2022-10-14T00:59:12.736Z,15.97
2022-10-14T01:01:40.964Z,16.00
2022-10-14T01:04:10.376Z,15.98
2022-10-14T01:06:48.547Z,16.01
2022-10-14T01:09:28.294Z,15.98
2022-10-14T01:12:27.962Z,16.01
2022-10-14T01:15:06.309Z,16.01
2022-10-14T01:17:49.495Z,16.05
2022-10-14T01:20:50.451Z,16.01
2022-10-14T01:23:54.367Z,15.97
2022-10-14T01:26:48.059Z,15.96
2022-10-14T01:29:33.194Z,15.90
2022-10-14T01:32:07.668Z,15.94
2022-10-14T01:34:43.644Z,15.92
2022-10-14T01:37:18.776Z,15.90
2022-10-14T01:39:55.366Z,15.89
2022-10-14T01:42:28.103Z,15.88
2022-10-14T01:45:03.283Z,15.90
2022-10-14T01:47:36.511Z,15.90
2022-10-14T01:50:10.569Z,15.89
2022-10-14T01:52:44.879Z,15.90
2022-10-14T01:55:20.063Z,15.88
2022-10-14T01:57:51.800Z,15.89
2022-10-14T02:00:20.336Z,15.91
2022-10-14T02:02:49.786Z,15.95
2022-10-14T02:05:23.196Z,15.93
2022-10-14T02:07:58.377Z,15.88
2022-10-14T02:10:42.413Z,15.86
2022-10-14T02:13:29.349Z,15.81
2022-10-14T02:16:09.630Z,15.86
2022-10-14T02:18:49.356Z,15.89
2022-10-14T02:21:25.402Z,15.83
2022-10-14T02:24:00.216Z,15.83
2022-10-14T02:26:29.399Z,15.80
2022-10-14T02:28:59.185Z,15.77
2022-10-14T02:31:30.408Z,15.78
2022-10-14T02:34:06.361Z,15.71
2022-10-14T02:36:38.540Z,15.75
2022-10-14T02:39:08.852Z,15.78
2022-10-14T02:41:39.631Z,15.76
2022-10-14T02:44:09.397Z,15.76
2022-10-14T02:46:39.937Z,15.69
2022-10-14T02:49:11.708Z,15.72
2022-10-14T02:51:40.143Z,15.72
2022-10-14T02:54:12.378Z,15.74
2022-10-14T02:56:41.006Z,15.73
2022-10-14T02:59:09.060Z,15.72
2022-10-14T03:01:37.977Z,15.77
2022-10-14T03:04:08.195Z,15.79
2022-10-14T03:06:38.607Z,15.80
2022-10-14T03:09:06.756Z,15.84
2022-10-14T03:11:37.634Z,15.79
2022-10-14T03:14:08.778Z,15.80
2022-10-14T03:16:37.856Z,15.80
2022-10-14T03:19:06.849Z,15.81
2022-10-14T03:21:44.405Z,15.79
2022-10-14T03:24:18.997Z,15.75
2022-10-14T03:26:50.793Z,15.70
2022-10-14T03:29:25.093Z,15.72
2022-10-14T03:32:02.140Z,15.74
2022-10-14T03:34:47.665Z,15.68
2022-10-14T03:37:22.756Z,15.69
2022-10-14T03:39:53.008Z,15.69
2022-10-14T03:42:21.543Z,15.74
2022-10-14T03:44:51.156Z,15.60
2022-10-14T03:47:28.935Z,15.52
2022-10-14T03:49:57.087Z,15.47
2022-10-14T03:52:52.121Z,15.51
2022-10-14T03:55:28.541Z,15.55
2022-10-14T03:57:57.359Z,15.55
2022-10-14T04:00:25.463Z,15.59
2022-10-14T04:03:12.017Z,15.60
2022-10-14T04:05:41.699Z,15.58
2022-10-14T04:08:15.509Z,15.59
2022-10-14T04:10:53.789Z,15.68
2022-10-14T04:13:23.099Z,15.74
2022-10-14T04:15:51.182Z,15.79
2022-10-14T04:18:24.573Z,15.78
2022-10-14T04:20:56.131Z,15.82
2022-10-14T04:23:27.610Z,15.89
2022-10-14T04:26:04.253Z,15.93
2022-10-14T04:28:32.942Z,15.98
2022-10-14T04:31:09.077Z,16.01
2022-10-14T04:33:49.230Z,15.99
2022-10-14T04:36:23.499Z,15.96
2022-10-14T04:38:53.102Z,16.00
2022-10-14T04:41:21.200Z,15.99
2022-10-14T04:43:51.059Z,15.97
2022-10-14T04:46:33.843Z,15.97
2022-10-14T04:49:01.865Z,15.94
2022-10-14T04:51:34.942Z,15.94
2022-10-14T04:54:19.249Z,15.94
2022-10-14T04:56:54.011Z,15.93
2022-10-14T04:59:22.106Z,16.02
2022-10-14T05:02:10.380Z,16.00
2022-10-14T05:04:43.189Z,16.11
2022-10-14T05:07:12.157Z,16.11
2022-10-14T05:09:46.306Z,16.08
2022-10-14T05:12:29.042Z,15.97
2022-10-14T05:15:00.986Z,15.94
2022-10-14T05:17:39.208Z,15.96
2022-10-14T05:20:11.983Z,16.00
2022-10-14T05:22:41.671Z,15.96
2022-10-14T05:25:11.375Z,16.06
2022-10-14T05:27:39.538Z,16.12
2022-10-14T05:30:09.638Z,16.11
2022-10-14T05:32:43.314Z,16.11
2022-10-14T05:35:11.840Z,16.03
2022-10-14T05:37:41.742Z,16.04
2022-10-14T05:40:12.502Z,16.07
2022-10-14T05:42:40.721Z,16.06
2022-10-14T05:45:10.872Z,16.06
2022-10-14T05:47:46.383Z,16.10
2022-10-14T05:50:18.615Z,16.10
2022-10-14T05:52:48.337Z,16.06
2022-10-14T05:55:27.054Z,16.04
2022-10-14T05:57:59.391Z,16.03
2022-10-14T06:00:33.743Z,16.05
2022-10-14T06:03:07.233Z,16.07
2022-10-14T06:05:38.377Z,16.08
2022-10-14T06:08:06.986Z,16.05
2022-10-14T06:10:39.316Z,16.08
2022-10-14T06:13:07.398Z,16.06
2022-10-14T06:15:39.253Z,16.05
2022-10-14T06:18:12.358Z,16.02
2022-10-14T06:20:40.479Z,16.00
2022-10-14T06:23:08.560Z,15.99
2022-10-14T06:25:39.189Z,16.01
2022-10-14T06:28:07.320Z,16.01
2022-10-14T06:30:35.446Z,16.02
2022-10-14T06:33:03.537Z,16.02
2022-10-14T06:35:31.576Z,16.06
2022-10-14T06:37:59.778Z,16.06
2022-10-14T06:40:27.878Z,16.05
2022-10-14T06:42:59.596Z,16.07
2022-10-14T06:45:27.730Z,16.08
2022-10-14T06:47:55.821Z,16.09
2022-10-14T06:50:23.955Z,16.15
2022-10-14T06:52:52.013Z,16.15
2022-10-14T06:55:20.046Z,16.15
2022-10-14T06:57:48.110Z,16.16
2022-10-14T07:00:19.052Z,16.16
2022-10-14T07:02:47.169Z,16.13
2022-10-14T07:05:15.384Z,16.19
2022-10-14T07:07:43.510Z,16.23
2022-10-14T07:10:11.546Z,16.21
2022-10-14T07:12:39.617Z,16.22
2022-10-14T07:15:09.847Z,16.21
2022-10-14T07:17:39.597Z,16.23
2022-10-14T07:20:09.017Z,16.25
2022-10-14T07:22:38.777Z,16.27
2022-10-14T07:25:08.954Z,16.27
2022-10-14T07:27:37.203Z,16.26
2022-10-14T07:30:07.058Z,16.30
2022-10-14T07:32:37.773Z,16.31
2022-10-14T07:35:08.630Z,16.38
2022-10-14T07:37:36.688Z,16.36
2022-10-14T07:40:05.622Z,16.37
2022-10-14T07:42:33.781Z,16.40
2022-10-14T07:45:02.584Z,16.42
2022-10-14T07:47:31.072Z,16.44
2022-10-14T07:49:59.232Z,16.40
2022-10-14T07:52:28.876Z,16.50
2022-10-14T07:54:56.961Z,16.45
2022-10-14T07:57:25.538Z,16.46
2022-10-14T07:59:53.762Z,16.52
2022-10-14T08:02:22.100Z,16.55
2022-10-14T08:05:04.084Z,16.60
2022-10-14T08:07:42.805Z,16.58
2022-10-14T08:10:10.880Z,16.65
2022-10-14T08:12:38.991Z,16.68
2022-10-14T08:15:08.253Z,16.71
2022-10-14T08:17:36.286Z,16.72
2022-10-14T08:20:05.185Z,16.71
2022-10-14T08:22:33.205Z,16.75
2022-10-14T08:25:02.615Z,16.81
2022-10-14T08:27:30.694Z,16.81
2022-10-14T08:29:58.733Z,16.85
2022-10-14T08:32:26.785Z,17.14
2022-10-14T08:34:55.912Z,17.53
2022-10-14T08:37:24.208Z,17.83
2022-10-14T08:39:52.261Z,17.97
2022-10-14T08:42:39.290Z,18.25
2022-10-14T08:45:15.311Z,18.47
2022-10-14T08:47:47.338Z,18.48
2022-10-14T08:50:29.159Z,18.83
2022-10-14T08:53:03.537Z,18.95
2022-10-14T08:55:37.601Z,19.07
2022-10-14T08:58:15.802Z,19.13
2022-10-14T09:00:47.687Z,19.31
2022-10-14T09:03:22.223Z,19.36
2022-10-14T09:05:58.526Z,19.54
2022-10-14T09:08:34.336Z,19.72
2022-10-14T09:11:02.660Z,19.74
2022-10-14T09:13:37.895Z,19.72
2022-10-14T09:16:10.764Z,19.42
2022-10-14T09:18:43.407Z,19.14
2022-10-14T09:21:40.889Z,18.88
2022-10-14T09:24:21.368Z,18.67
2022-10-14T09:26:53.406Z,18.51
2022-10-14T09:29:28.893Z,18.33
2022-10-14T09:31:59.858Z,18.25
2022-10-14T09:34:35.540Z,18.26
2022-10-14T09:37:23.691Z,18.19
2022-10-14T09:39:55.239Z,18.16
2022-10-14T09:42:34.705Z,18.12
2022-10-14T09:45:13.062Z,18.11
2022-10-14T09:47:51.130Z,18.13
2022-10-14T09:50:27.101Z,18.07
2022-10-14T09:53:05.365Z,18.09
2022-10-14T09:55:36.546Z,18.09
2022-10-14T09:58:16.666Z,18.13
2022-10-14T10:00:47.845Z,18.11
2022-10-14T10:03:27.907Z,18.15
2022-10-14T10:06:07.771Z,18.11
2022-10-14T10:08:38.866Z,18.10
2022-10-14T10:11:10.420Z,18.17
2022-10-14T10:13:44.453Z,18.15
2022-10-14T10:16:24.294Z,18.13
2022-10-14T10:18:55.153Z,18.18
2022-10-14T10:21:26.489Z,18.21
2022-10-14T10:23:58.475Z,18.25
2022-10-14T10:26:31.917Z,18.30
2022-10-14T10:29:02.950Z,18.26
2022-10-14T10:31:51.667Z,18.35
2022-10-14T10:35:00.989Z,18.38
2022-10-14T10:37:33.285Z,18.36
2022-10-14T10:40:31.996Z,18.37
2022-10-14T10:43:36.386Z,18.36
2022-10-14T10:46:34.479Z,18.38
2022-10-14T10:49:14.595Z,18.44
2022-10-14T10:51:53.290Z,18.40
2022-10-14T10:54:35.721Z,18.41
2022-10-14T10:57:13.778Z,18.40
2022-10-14T10:59:57.669Z,18.43
2022-10-14T11:02:54.911Z,18.37
2022-10-14T11:05:43.658Z,18.34
2022-10-14T11:08:56.472Z,18.21
2022-10-14T11:11:46.743Z,18.29
2022-10-14T11:14:36.755Z,18.28
2022-10-14T11:17:14.963Z,18.27
2022-10-14T11:19:55.127Z,18.24
2022-10-14T11:22:44.211Z,18.28
2022-10-14T11:25:26.072Z,18.26
2022-10-14T11:28:03.549Z,18.28
2022-10-14T11:30:46.181Z,18.27
2022-10-14T11:33:39.795Z,18.22
2022-10-14T11:36:31.406Z,18.23
2022-10-14T11:39:20.059Z,18.23
2022-10-14T11:42:05.295Z,18.28
2022-10-14T11:44:37.901Z,18.33
2022-10-14T11:47:13.832Z,18.34
2022-10-14T11:49:48.641Z,18.27
2022-10-14T11:52:23.608Z,18.37
2022-10-14T11:54:59.836Z,18.45
2022-10-14T11:57:33.585Z,18.46
2022-10-14T12:00:23.336Z,18.50
2022-10-14T12:02:59.492Z,18.57
2022-10-14T12:05:40.034Z,18.61
2022-10-14T12:08:22.139Z,18.65
2022-10-14T12:10:59.145Z,18.65
2022-10-14T12:13:35.569Z,18.66
2022-10-14T12:16:05.448Z,18.73
2022-10-14T12:21:20.308Z,18.71
2022-10-14T12:23:53.267Z,18.78
2022-10-14T12:26:48.210Z,18.75
2022-10-14T12:29:20.549Z,18.77
2022-10-14T12:32:09.637Z,18.79
2022-10-14T12:34:40.478Z,18.85
2022-10-14T12:37:52.516Z,18.82
2022-10-14T12:40:31.552Z,18.85
2022-10-14T12:43:31.193Z,18.88
2022-10-14T12:46:14.411Z,18.93
2022-10-14T12:48:52.384Z,18.95
2022-10-14T12:51:23.832Z,18.93
2022-10-14T12:54:04.864Z,18.98
2022-10-14T12:56:37.357Z,18.96
2022-10-14T12:59:09.341Z,18.87
2022-10-14T13:01:43.633Z,18.86
2022-10-14T13:04:20.245Z,19.02
2022-10-14T13:07:41.252Z,18.99
2022-10-14T13:10:48.478Z,19.01
2022-10-14T13:14:01.362Z,18.99
2022-10-14T13:17:00.221Z,19.01
2022-10-14T13:19:46.502Z,19.02
2022-10-14T13:22:39.899Z,19.02
2022-10-14T13:25:20.507Z,19.15
2022-10-14T13:28:13.834Z,19.14
2022-10-14T13:30:58.638Z,19.10
2022-10-14T13:33:37.893Z,19.10
2022-10-14T13:36:18.117Z,19.10
2022-10-14T13:38:54.767Z,19.05
2022-10-14T13:41:30.682Z,19.04
2022-10-14T13:44:01.272Z,19.08
2022-10-14T13:46:35.036Z,19.06
2022-10-14T13:51:53.467Z,19.04
2022-10-14T13:54:24.065Z,18.98
2022-10-14T13:57:43.036Z,18.87
2022-10-14T14:00:38.820Z,18.81
2022-10-14T14:02:49.025Z,18.74
2022-10-14T14:05:24.761Z,18.69
2022-10-14T14:11:11.099Z,18.72
2022-10-14T14:13:33.570Z,18.65
2022-10-14T14:16:01.883Z,18.69
2022-10-14T14:18:49.518Z,18.68
2022-10-14T14:21:28.623Z,18.62
2022-10-14T14:23:58.744Z,18.61
2022-10-14T14:26:33.691Z,18.63
2022-10-14T14:29:06.229Z,18.65
2022-10-14T14:32:05.067Z,18.57
2022-10-14T14:34:25.079Z,18.55
2022-10-14T14:37:01.316Z,18.56
2022-10-14T14:39:34.951Z,18.54
2022-10-14T14:42:03.523Z,18.54
2022-10-14T14:44:34.743Z,18.51
2022-10-14T14:47:06.053Z,18.50
2022-10-14T14:49:39.239Z,18.53
2022-10-14T14:52:12.638Z,18.53
2022-10-14T14:54:46.510Z,18.55
2022-10-14T14:57:19.688Z,18.56
2022-10-14T14:59:58.249Z,18.54
2022-10-14T15:02:26.506Z,18.54
2022-10-14T15:05:03.442Z,18.53
2022-10-14T15:07:33.343Z,18.54
2022-10-14T15:10:05.245Z,18.57
2022-10-14T15:12:39.094Z,18.52
2022-10-14T15:15:26.714Z,18.51
2022-10-14T15:18:14.933Z,18.45
2022-10-14T15:20:44.231Z,18.44
2022-10-14T15:23:43.582Z,18.43
2022-10-14T15:26:31.330Z,18.42
2022-10-14T15:32:15.005Z,18.38
2022-10-14T15:34:43.100Z,18.42
2022-10-14T15:37:14.704Z,18.42
2022-10-14T15:39:44.399Z,18.37
2022-10-14T15:42:13.312Z,18.37
2022-10-14T15:44:41.294Z,18.40
2022-10-14T15:47:22.445Z,18.37
2022-10-14T15:49:50.739Z,18.35
2022-10-14T15:52:21.590Z,18.37
2022-10-14T15:54:53.774Z,18.36
2022-10-14T15:57:22.295Z,18.34
2022-10-14T15:59:52.643Z,18.33
2022-10-14T16:02:33.240Z,18.30
2022-10-14T16:07:50.448Z,18.27
2022-10-14T16:10:22.878Z,18.25
2022-10-14T16:12:51.189Z,18.22
2022-10-14T16:15:35.113Z,18.23
2022-10-14T16:18:03.165Z,18.19
2022-10-14T16:20:31.693Z,18.19
2022-10-14T16:23:01.386Z,18.22
2022-10-14T16:25:36.073Z,18.21
2022-10-14T16:28:29.897Z,18.17
2022-10-14T16:30:59.858Z,18.11
2022-10-14T16:33:28.158Z,18.15
2022-10-14T16:35:58.108Z,18.14
2022-10-14T16:38:26.246Z,18.14
2022-10-14T16:41:00.320Z,18.15
2022-10-14T16:43:29.851Z,18.08
2022-10-14T16:46:00.557Z,18.09
2022-10-14T16:48:29.669Z,18.06
2022-10-14T16:50:58.025Z,18.02
2022-10-14T16:53:43.569Z,18.01
2022-10-14T16:56:34.206Z,18.04
2022-10-14T16:59:03.634Z,17.97
2022-10-14T17:01:32.315Z,17.99
2022-10-14T17:04:00.484Z,17.98
2022-10-14T17:06:29.006Z,17.97
2022-10-14T17:08:57.207Z,17.99
2022-10-14T17:11:28.076Z,17.98
2022-10-14T17:13:57.942Z,17.97
2022-10-14T17:16:26.974Z,18.00
2022-10-14T17:18:55.167Z,17.94
2022-10-14T17:21:24.233Z,17.92
2022-10-14T17:23:52.224Z,17.94
2022-10-14T17:26:20.932Z,17.94
2022-10-14T17:28:50.866Z,17.95
2022-10-14T17:31:21.538Z,17.89
2022-10-14T17:33:50.235Z,17.89
2022-10-14T17:36:20.575Z,17.90
2022-10-14T17:38:51.860Z,17.90
2022-10-14T17:41:20.547Z,17.86
2022-10-14T17:43:51.808Z,17.86
2022-10-14T17:46:23.365Z,17.83
2022-10-14T17:48:54.362Z,17.81
2022-10-14T17:51:24.380Z,17.81
2022-10-14T17:53:55.108Z,17.81
2022-10-14T17:56:23.505Z,17.78
2022-10-14T17:58:57.920Z,17.80
2022-10-14T18:01:37.317Z,17.82
2022-10-14T18:04:12.072Z,17.81
2022-10-14T18:06:40.373Z,17.79
2022-10-14T18:09:10.532Z,17.82
2022-10-14T18:12:07.684Z,17.77
2022-10-14T18:14:33.440Z,17.78
2022-10-14T18:17:01.782Z,17.72
2022-10-14T18:19:30.157Z,17.73
2022-10-14T18:21:58.287Z,17.77
2022-10-14T18:24:27.070Z,17.74
2022-10-14T18:26:55.101Z,17.70
2022-10-14T18:29:24.532Z,17.65
2022-10-14T18:31:53.894Z,17.67
2022-10-14T18:34:24.882Z,17.65
2022-10-14T18:36:53.330Z,17.66
2022-10-14T18:39:21.533Z,17.64
2022-10-14T18:41:49.790Z,17.62
2022-10-14T18:44:19.406Z,17.63
2022-10-14T18:46:48.484Z,17.62
2022-10-14T18:49:18.278Z,17.64
2022-10-14T18:51:46.619Z,17.63
2022-10-14T18:54:18.093Z,17.61
2022-10-14T18:56:47.182Z,17.53
2022-10-14T18:59:18.177Z,17.60
2022-10-14T19:01:47.608Z,17.48
2022-10-14T19:04:18.689Z,17.45
2022-10-14T19:06:48.602Z,17.47
2022-10-14T19:09:17.428Z,17.54
2022-10-14T19:11:47.696Z,17.46
2022-10-14T19:14:15.735Z,17.42
2022-10-14T19:16:44.456Z,17.45
2022-10-14T19:19:16.727Z,17.43
2022-10-14T19:21:49.536Z,17.40
2022-10-14T19:24:18.070Z,17.37
2022-10-14T19:26:49.852Z,17.42
2022-10-14T19:29:18.246Z,17.38
2022-10-14T19:31:46.367Z,17.38
2022-10-14T19:34:16.691Z,17.41
2022-10-14T19:36:47.140Z,17.35
2022-10-14T19:39:18.788Z,17.39
2022-10-14T19:41:47.478Z,17.36
2022-10-14T19:44:17.267Z,17.38
2022-10-14T19:46:46.274Z,17.25
2022-10-14T19:49:16.161Z,17.24
2022-10-14T19:51:45.142Z,17.21
2022-10-14T19:54:15.168Z,17.22
2022-10-14T19:56:43.461Z,17.20
2022-10-14T19:59:17.005Z,17.20
2022-10-14T20:01:45.253Z,17.20
2022-10-14T20:04:13.467Z,17.17
2022-10-14T20:06:42.875Z,17.17
2022-10-14T20:09:14.910Z,17.16
2022-10-14T20:11:44.050Z,17.14
2022-10-14T20:14:12.142Z,17.10
2022-10-14T20:16:40.269Z,17.11
2022-10-14T20:19:08.392Z,17.11
2022-10-14T20:21:36.445Z,17.02
2022-10-14T20:24:05.271Z,17.00
2022-10-14T20:26:36.051Z,16.95
2022-10-14T20:29:04.228Z,16.93
2022-10-14T20:31:32.298Z,16.98
2022-10-14T20:34:00.457Z,16.93
2022-10-14T20:36:28.654Z,16.85
2022-10-14T20:38:56.673Z,16.82
2022-10-14T20:41:27.286Z,16.89
2022-10-14T20:43:58.093Z,16.87
2022-10-14T20:46:26.201Z,16.81
2022-10-14T20:48:55.956Z,16.79
2022-10-14T20:51:24.541Z,16.82
2022-10-14T20:54:01.800Z,16.84
2022-10-14T20:56:34.370Z,16.79
2022-10-14T20:59:07.403Z,16.78
2022-10-14T21:01:37.553Z,16.74
2022-10-14T21:04:07.883Z,16.76
2022-10-14T21:06:38.561Z,16.81
2022-10-14T21:09:07.343Z,16.81
2022-10-14T21:11:35.485Z,16.79
2022-10-14T21:14:05.100Z,16.82
2022-10-14T21:16:35.330Z,16.76
2022-10-14T21:19:07.463Z,16.73
2022-10-14T21:21:39.126Z,16.75
2022-10-14T21:24:08.745Z,16.76
2022-10-14T21:26:36.788Z,16.78
2022-10-14T21:29:06.643Z,16.73
2022-10-14T21:31:34.995Z,16.66
2022-10-14T21:34:06.605Z,16.64
2022-10-14T21:36:35.548Z,16.67
2022-10-14T21:39:07.573Z,16.74
2022-10-14T21:41:36.005Z,16.72
2022-10-14T21:44:06.913Z,16.72
2022-10-14T21:46:36.442Z,16.78
2022-10-14T21:49:04.955Z,16.72
2022-10-14T21:51:33.877Z,16.78
2022-10-14T21:54:01.927Z,16.78
2022-10-14T21:56:30.359Z,16.82
2022-10-14T21:58:59.338Z,16.81
2022-10-14T22:01:30.868Z,16.81
2022-10-14T22:04:00.893Z,16.75
2022-10-14T22:06:29.454Z,16.69
2022-10-14T22:09:00.501Z,16.76
2022-10-14T22:11:31.216Z,16.79
2022-10-14T22:14:02.007Z,16.84
2022-10-14T22:16:37.573Z,16.75
2022-10-14T22:19:07.834Z,16.75
2022-10-14T22:21:39.329Z,16.78
2022-10-14T22:24:09.575Z,16.85
2022-10-14T22:26:40.533Z,16.79
2022-10-14T22:29:13.635Z,16.81
2022-10-14T22:31:43.692Z,16.74
2022-10-14T22:34:15.629Z,16.83
2022-10-14T22:36:44.463Z,16.82
2022-10-14T22:39:15.138Z,16.87
2022-10-14T22:41:43.403Z,16.89
2022-10-14T22:44:12.389Z,16.87
2022-10-14T22:46:42.579Z,16.88
2022-10-14T22:49:10.906Z,16.89
2022-10-14T22:51:41.226Z,16.85
2022-10-14T22:54:10.150Z,16.85
2022-10-14T22:56:39.152Z,16.81
2022-10-14T22:59:09.539Z,16.88
2022-10-14T23:01:38.445Z,16.83
2022-10-14T23:04:08.296Z,16.89
2022-10-14T23:06:36.385Z,16.79
2022-10-14T23:09:05.840Z,16.85
2022-10-14T23:11:33.940Z,16.87
2022-10-14T23:14:06.161Z,16.88
2022-10-14T23:16:36.233Z,16.89
2022-10-14T23:19:04.751Z,16.84
2022-10-14T23:21:36.188Z,16.83
2022-10-14T23:24:08.010Z,16.95
2022-10-14T23:26:37.018Z,16.91
2022-10-14T23:29:08.147Z,16.86
2022-10-14T23:31:38.112Z,16.85
2022-10-14T23:34:12.579Z,16.88
2022-10-14T23:36:42.510Z,16.95
2022-10-14T23:39:10.884Z,16.87
2022-10-14T23:41:39.350Z,16.86
2022-10-14T23:44:07.397Z,16.94
2022-10-14T23:46:35.434Z,16.89
2022-10-14T23:49:21.162Z,16.87
2022-10-14T23:51:53.034Z,16.76
2022-10-14T23:54:21.057Z,16.82
2022-10-14T23:56:49.147Z,16.87
2022-10-14T23:59:17.364Z,16.90
